sensor_id;sensor_type;location;lat;lon;timestamp;pressure;altitude;pressure_sealevel;temperature
22322;BMP180;11328;53.928;18.522;2022-12-29T00:00:55;99464.00;;;8.00
22322;BMP180;11328;53.928;18.522;2022-12-29T00:03:25;99472.00;;;7.90
22322;BMP180;11328;53.928;18.522;2022-12-29T00:05:57;99475.00;;;8.00
22322;BMP180;11328;53.928;18.522;2022-12-29T00:08:24;99443.00;;;7.60
22322;BMP180;11328;53.928;18.522;2022-12-29T00:11:11;99468.00;;;7.90
22322;BMP180;11328;53.928;18.522;2022-12-29T00:13:39;99469.00;;;8.10
22322;BMP180;11328;53.928;18.522;2022-12-29T00:16:27;99461.00;;;8.00
22322;BMP180;11328;53.928;18.522;2022-12-29T00:18:54;99467.00;;;8.00
22322;BMP180;11328;53.928;18.522;2022-12-29T00:21:23;99463.00;;;7.90
22322;BMP180;11328;53.928;18.522;2022-12-29T00:24:18;99466.00;;;8.00
22322;BMP180;11328;53.928;18.522;2022-12-29T00:29:49;99456.00;;;8.00
22322;BMP180;11328;53.928;18.522;2022-12-29T00:32:35;99463.00;;;7.90
22322;BMP180;11328;53.928;18.522;2022-12-29T00:35:31;99451.00;;;7.80
22322;BMP180;11328;53.928;18.522;2022-12-29T00:38:05;99456.00;;;7.90
22322;BMP180;11328;53.928;18.522;2022-12-29T00:40:51;99450.00;;;7.90
22322;BMP180;11328;53.928;18.522;2022-12-29T00:43:37;99454.00;;;7.90
22322;BMP180;11328;53.928;18.522;2022-12-29T00:46:22;99449.00;;;7.90
22322;BMP180;11328;53.928;18.522;2022-12-29T00:48:49;99453.00;;;7.90
22322;BMP180;11328;53.928;18.522;2022-12-29T00:51:35;99438.00;;;7.80
22322;BMP180;11328;53.928;18.522;2022-12-29T00:54:02;99444.00;;;7.80
22322;BMP180;11328;53.928;18.522;2022-12-29T00:56:29;99447.00;;;7.90
22322;BMP180;11328;53.928;18.522;2022-12-29T00:59:08;99437.00;;;8.00
22322;BMP180;11328;53.928;18.522;2022-12-29T01:01:37;99436.00;;;7.90
22322;BMP180;11328;53.928;18.522;2022-12-29T01:04:05;99433.00;;;7.90
22322;BMP180;11328;53.928;18.522;2022-12-29T01:06:35;99438.00;;;7.90
22322;BMP180;11328;53.928;18.522;2022-12-29T01:09:03;99419.00;;;7.90
22322;BMP180;11328;53.928;18.522;2022-12-29T01:11:49;99430.00;;;7.90
22322;BMP180;11328;53.928;18.522;2022-12-29T01:14:18;99433.00;;;7.90
22322;BMP180;11328;53.928;18.522;2022-12-29T01:16:45;99413.00;;;7.80
22322;BMP180;11328;53.928;18.522;2022-12-29T01:19:16;99428.00;;;7.90
22322;BMP180;11328;53.928;18.522;2022-12-29T01:21:45;99422.00;;;7.90
22322;BMP180;11328;53.928;18.522;2022-12-29T01:24:12;99414.00;;;8.10
22322;BMP180;11328;53.928;18.522;2022-12-29T01:26:39;99414.00;;;8.10
22322;BMP180;11328;53.928;18.522;2022-12-29T01:29:07;99405.00;;;8.10
22322;BMP180;11328;53.928;18.522;2022-12-29T01:31:34;99388.00;;;8.00
22322;BMP180;11328;53.928;18.522;2022-12-29T01:34:02;99392.00;;;8.00
22322;BMP180;11328;53.928;18.522;2022-12-29T01:36:29;99378.00;;;8.00
22322;BMP180;11328;53.928;18.522;2022-12-29T01:38:56;99399.00;;;7.90
22322;BMP180;11328;53.928;18.522;2022-12-29T01:41:23;99406.00;;;7.80
22322;BMP180;11328;53.928;18.522;2022-12-29T01:43:57;99401.00;;;7.90
22322;BMP180;11328;53.928;18.522;2022-12-29T01:46:34;99407.00;;;7.90
22322;BMP180;11328;53.928;18.522;2022-12-29T01:49:23;99410.00;;;7.90
22322;BMP180;11328;53.928;18.522;2022-12-29T01:52:06;99392.00;;;7.80
22322;BMP180;11328;53.928;18.522;2022-12-29T01:54:41;99413.00;;;7.70
22322;BMP180;11328;53.928;18.522;2022-12-29T01:57:17;99410.00;;;7.60
22322;BMP180;11328;53.928;18.522;2022-12-29T02:00:00;99404.00;;;7.70
22322;BMP180;11328;53.928;18.522;2022-12-29T02:02:28;99417.00;;;7.70
22322;BMP180;11328;53.928;18.522;2022-12-29T02:05:03;99412.00;;;7.60
22322;BMP180;11328;53.928;18.522;2022-12-29T02:07:31;99402.00;;;7.70
22322;BMP180;11328;53.928;18.522;2022-12-29T02:10:01;99401.00;;;7.70
22322;BMP180;11328;53.928;18.522;2022-12-29T02:12:28;99402.00;;;7.70
22322;BMP180;11328;53.928;18.522;2022-12-29T02:15:01;99405.00;;;7.70
22322;BMP180;11328;53.928;18.522;2022-12-29T02:18:07;99397.00;;;7.80
22322;BMP180;11328;53.928;18.522;2022-12-29T02:29:50;99387.00;;;7.70
22322;BMP180;11328;53.928;18.522;2022-12-29T02:35:36;99363.00;;;7.80
22322;BMP180;11328;53.928;18.522;2022-12-29T02:38:39;99371.00;;;7.80
22322;BMP180;11328;53.928;18.522;2022-12-29T02:47:25;99360.00;;;8.00
22322;BMP180;11328;53.928;18.522;2022-12-29T02:53:00;99350.00;;;8.10
22322;BMP180;11328;53.928;18.522;2022-12-29T02:55:28;99350.00;;;8.00
22322;BMP180;11328;53.928;18.522;2022-12-29T02:58:22;99352.00;;;7.90
22322;BMP180;11328;53.928;18.522;2022-12-29T03:04:15;99364.00;;;7.90
22322;BMP180;11328;53.928;18.522;2022-12-29T03:07:18;99349.00;;;7.90
22322;BMP180;11328;53.928;18.522;2022-12-29T03:15:48;99340.00;;;8.10
22322;BMP180;11328;53.928;18.522;2022-12-29T03:19:06;99346.00;;;7.90
22322;BMP180;11328;53.928;18.522;2022-12-29T03:21:49;99348.00;;;7.90
22322;BMP180;11328;53.928;18.522;2022-12-29T03:24:41;99350.00;;;7.90
22322;BMP180;11328;53.928;18.522;2022-12-29T03:27:14;99312.00;;;7.90
22322;BMP180;11328;53.928;18.522;2022-12-29T03:29:52;99344.00;;;8.00
22322;BMP180;11328;53.928;18.522;2022-12-29T03:32:32;99346.00;;;7.90
22322;BMP180;11328;53.928;18.522;2022-12-29T03:35:02;99351.00;;;8.00
22322;BMP180;11328;53.928;18.522;2022-12-29T03:37:43;99344.00;;;8.00
22322;BMP180;11328;53.928;18.522;2022-12-29T03:40:11;99348.00;;;8.00
22322;BMP180;11328;53.928;18.522;2022-12-29T03:42:40;99352.00;;;8.10
22322;BMP180;11328;53.928;18.522;2022-12-29T03:45:08;99342.00;;;8.10
22322;BMP180;11328;53.928;18.522;2022-12-29T03:47:35;99332.00;;;8.10
22322;BMP180;11328;53.928;18.522;2022-12-29T03:50:02;99326.00;;;8.10
22322;BMP180;11328;53.928;18.522;2022-12-29T03:52:29;99326.00;;;8.20
22322;BMP180;11328;53.928;18.522;2022-12-29T03:54:56;99324.00;;;8.20
22322;BMP180;11328;53.928;18.522;2022-12-29T03:57:23;99323.00;;;8.10
22322;BMP180;11328;53.928;18.522;2022-12-29T03:59:50;99283.00;;;8.10
22322;BMP180;11328;53.928;18.522;2022-12-29T04:13:35;99307.00;;;8.80
22322;BMP180;11328;53.928;18.522;2022-12-29T04:16:02;99300.00;;;8.60
22322;BMP180;11328;53.928;18.522;2022-12-29T04:18:29;99306.00;;;8.50
22322;BMP180;11328;53.928;18.522;2022-12-29T04:20:56;99291.00;;;8.50
22322;BMP180;11328;53.928;18.522;2022-12-29T04:23:36;99289.00;;;8.30
22322;BMP180;11328;53.928;18.522;2022-12-29T04:26:04;99305.00;;;8.30
22322;BMP180;11328;53.928;18.522;2022-12-29T04:28:33;99290.00;;;8.20
22322;BMP180;11328;53.928;18.522;2022-12-29T04:31:00;99286.00;;;8.20
22322;BMP180;11328;53.928;18.522;2022-12-29T04:33:28;99262.00;;;8.10
22322;BMP180;11328;53.928;18.522;2022-12-29T04:35:55;99281.00;;;7.90
22322;BMP180;11328;53.928;18.522;2022-12-29T04:38:23;99286.00;;;8.00
22322;BMP180;11328;53.928;18.522;2022-12-29T04:40:50;99278.00;;;8.00
22322;BMP180;11328;53.928;18.522;2022-12-29T04:43:18;99289.00;;;8.00
22322;BMP180;11328;53.928;18.522;2022-12-29T04:45:49;99288.00;;;8.00
22322;BMP180;11328;53.928;18.522;2022-12-29T04:48:16;99278.00;;;8.10
22322;BMP180;11328;53.928;18.522;2022-12-29T04:50:47;99259.00;;;8.10
22322;BMP180;11328;53.928;18.522;2022-12-29T04:53:16;99273.00;;;8.10
22322;BMP180;11328;53.928;18.522;2022-12-29T04:55:48;99276.00;;;8.10
22322;BMP180;11328;53.928;18.522;2022-12-29T04:58:15;99267.00;;;8.10
22322;BMP180;11328;53.928;18.522;2022-12-29T05:00:48;99270.00;;;8.00
22322;BMP180;11328;53.928;18.522;2022-12-29T05:03:16;99278.00;;;8.10
22322;BMP180;11328;53.928;18.522;2022-12-29T05:05:44;99280.00;;;8.10
22322;BMP180;11328;53.928;18.522;2022-12-29T05:08:10;99276.00;;;8.20
22322;BMP180;11328;53.928;18.522;2022-12-29T05:10:44;99268.00;;;8.10
22322;BMP180;11328;53.928;18.522;2022-12-29T05:13:11;99281.00;;;8.10
22322;BMP180;11328;53.928;18.522;2022-12-29T05:15:38;99274.00;;;8.10
22322;BMP180;11328;53.928;18.522;2022-12-29T05:18:05;99267.00;;;8.10
22322;BMP180;11328;53.928;18.522;2022-12-29T05:20:31;99267.00;;;8.10
22322;BMP180;11328;53.928;18.522;2022-12-29T05:22:59;99232.00;;;8.10
22322;BMP180;11328;53.928;18.522;2022-12-29T05:25:26;99249.00;;;8.10
22322;BMP180;11328;53.928;18.522;2022-12-29T05:27:53;99244.00;;;8.20
22322;BMP180;11328;53.928;18.522;2022-12-29T05:30:20;99247.00;;;8.10
22322;BMP180;11328;53.928;18.522;2022-12-29T05:32:47;99253.00;;;8.10
22322;BMP180;11328;53.928;18.522;2022-12-29T05:35:14;99245.00;;;8.10
22322;BMP180;11328;53.928;18.522;2022-12-29T05:37:41;99236.00;;;8.10
22322;BMP180;11328;53.928;18.522;2022-12-29T05:40:08;99236.00;;;8.10
22322;BMP180;11328;53.928;18.522;2022-12-29T05:42:35;99246.00;;;8.00
22322;BMP180;11328;53.928;18.522;2022-12-29T05:45:02;99245.00;;;8.00
22322;BMP180;11328;53.928;18.522;2022-12-29T05:47:29;99238.00;;;8.00
22322;BMP180;11328;53.928;18.522;2022-12-29T05:49:56;99232.00;;;8.00
22322;BMP180;11328;53.928;18.522;2022-12-29T05:52:23;99234.00;;;8.00
22322;BMP180;11328;53.928;18.522;2022-12-29T05:54:50;99238.00;;;8.00
22322;BMP180;11328;53.928;18.522;2022-12-29T05:57:17;99222.00;;;8.10
22322;BMP180;11328;53.928;18.522;2022-12-29T05:59:44;99215.00;;;8.00
22322;BMP180;11328;53.928;18.522;2022-12-29T06:02:11;99205.00;;;8.00
22322;BMP180;11328;53.928;18.522;2022-12-29T06:04:38;99199.00;;;8.10
22322;BMP180;11328;53.928;18.522;2022-12-29T06:07:05;99203.00;;;8.10
22322;BMP180;11328;53.928;18.522;2022-12-29T06:09:32;99205.00;;;8.00
22322;BMP180;11328;53.928;18.522;2022-12-29T06:11:59;99205.00;;;8.00
22322;BMP180;11328;53.928;18.522;2022-12-29T06:14:26;99193.00;;;8.00
22322;BMP180;11328;53.928;18.522;2022-12-29T06:16:53;99200.00;;;8.00
22322;BMP180;11328;53.928;18.522;2022-12-29T06:19:20;99193.00;;;8.00
22322;BMP180;11328;53.928;18.522;2022-12-29T06:21:47;99203.00;;;8.00
22322;BMP180;11328;53.928;18.522;2022-12-29T06:24:14;99202.00;;;8.00
22322;BMP180;11328;53.928;18.522;2022-12-29T06:26:40;99200.00;;;8.00
22322;BMP180;11328;53.928;18.522;2022-12-29T06:29:08;99202.00;;;7.90
22322;BMP180;11328;53.928;18.522;2022-12-29T06:31:35;99196.00;;;7.90
22322;BMP180;11328;53.928;18.522;2022-12-29T06:34:02;99208.00;;;7.90
22322;BMP180;11328;53.928;18.522;2022-12-29T06:36:34;99206.00;;;7.90
22322;BMP180;11328;53.928;18.522;2022-12-29T06:39:01;99200.00;;;7.80
22322;BMP180;11328;53.928;18.522;2022-12-29T06:41:28;99210.00;;;7.90
22322;BMP180;11328;53.928;18.522;2022-12-29T06:43:58;99211.00;;;8.00
22322;BMP180;11328;53.928;18.522;2022-12-29T06:46:27;99211.00;;;8.00
22322;BMP180;11328;53.928;18.522;2022-12-29T06:48:54;99196.00;;;8.00
22322;BMP180;11328;53.928;18.522;2022-12-29T06:51:21;99195.00;;;8.10
22322;BMP180;11328;53.928;18.522;2022-12-29T06:53:48;99192.00;;;8.20
22322;BMP180;11328;53.928;18.522;2022-12-29T06:56:14;99198.00;;;8.10
22322;BMP180;11328;53.928;18.522;2022-12-29T06:58:41;99197.00;;;8.20
22322;BMP180;11328;53.928;18.522;2022-12-29T07:01:08;99200.00;;;8.20
22322;BMP180;11328;53.928;18.522;2022-12-29T07:03:35;99199.00;;;8.20
22322;BMP180;11328;53.928;18.522;2022-12-29T07:06:02;99192.00;;;8.10
22322;BMP180;11328;53.928;18.522;2022-12-29T07:08:29;99209.00;;;8.10
22322;BMP180;11328;53.928;18.522;2022-12-29T07:10:56;99206.00;;;8.10
22322;BMP180;11328;53.928;18.522;2022-12-29T07:13:23;99218.00;;;8.10
22322;BMP180;11328;53.928;18.522;2022-12-29T07:15:50;99219.00;;;8.10
22322;BMP180;11328;53.928;18.522;2022-12-29T07:18:20;99211.00;;;8.10
22322;BMP180;11328;53.928;18.522;2022-12-29T07:20:46;99211.00;;;8.10
22322;BMP180;11328;53.928;18.522;2022-12-29T07:23:14;99208.00;;;8.00
22322;BMP180;11328;53.928;18.522;2022-12-29T07:25:41;99201.00;;;8.10
22322;BMP180;11328;53.928;18.522;2022-12-29T07:28:08;99205.00;;;8.20
22322;BMP180;11328;53.928;18.522;2022-12-29T07:30:37;99196.00;;;8.10
22322;BMP180;11328;53.928;18.522;2022-12-29T07:33:04;99207.00;;;8.20
22322;BMP180;11328;53.928;18.522;2022-12-29T07:35:33;99205.00;;;8.20
22322;BMP180;11328;53.928;18.522;2022-12-29T07:38:00;99216.00;;;8.20
22322;BMP180;11328;53.928;18.522;2022-12-29T07:40:27;99225.00;;;8.20
22322;BMP180;11328;53.928;18.522;2022-12-29T07:55:00;99211.00;;;8.90
22322;BMP180;11328;53.928;18.522;2022-12-29T07:57:27;99214.00;;;8.80
22322;BMP180;11328;53.928;18.522;2022-12-29T07:59:58;99191.00;;;8.70
22322;BMP180;11328;53.928;18.522;2022-12-29T08:02:25;99209.00;;;8.80
22322;BMP180;11328;53.928;18.522;2022-12-29T08:04:53;99216.00;;;8.70
22322;BMP180;11328;53.928;18.522;2022-12-29T08:07:20;99207.00;;;8.70
22322;BMP180;11328;53.928;18.522;2022-12-29T08:09:47;99196.00;;;8.60
22322;BMP180;11328;53.928;18.522;2022-12-29T08:12:14;99207.00;;;8.60
22322;BMP180;11328;53.928;18.522;2022-12-29T08:14:41;99215.00;;;8.70
22322;BMP180;11328;53.928;18.522;2022-12-29T08:17:08;99218.00;;;8.70
22322;BMP180;11328;53.928;18.522;2022-12-29T08:19:34;99210.00;;;8.70
22322;BMP180;11328;53.928;18.522;2022-12-29T08:22:02;99209.00;;;8.70
22322;BMP180;11328;53.928;18.522;2022-12-29T08:24:29;99208.00;;;8.80
22322;BMP180;11328;53.928;18.522;2022-12-29T08:26:56;99212.00;;;8.90
22322;BMP180;11328;53.928;18.522;2022-12-29T08:29:23;99208.00;;;8.90
22322;BMP180;11328;53.928;18.522;2022-12-29T08:31:49;99221.00;;;8.90
22322;BMP180;11328;53.928;18.522;2022-12-29T08:34:16;99216.00;;;8.90
22322;BMP180;11328;53.928;18.522;2022-12-29T08:36:43;99217.00;;;9.00
22322;BMP180;11328;53.928;18.522;2022-12-29T08:39:10;99216.00;;;8.90
22322;BMP180;11328;53.928;18.522;2022-12-29T08:41:37;99206.00;;;8.90
22322;BMP180;11328;53.928;18.522;2022-12-29T08:44:04;99201.00;;;9.00
22322;BMP180;11328;53.928;18.522;2022-12-29T08:46:31;99214.00;;;9.00
22322;BMP180;11328;53.928;18.522;2022-12-29T08:48:58;99215.00;;;8.90
22322;BMP180;11328;53.928;18.522;2022-12-29T08:51:25;99211.00;;;8.90
22322;BMP180;11328;53.928;18.522;2022-12-29T08:53:53;99218.00;;;9.10
22322;BMP180;11328;53.928;18.522;2022-12-29T08:56:20;99196.00;;;9.00
22322;BMP180;11328;53.928;18.522;2022-12-29T08:58:47;99207.00;;;9.10
22322;BMP180;11328;53.928;18.522;2022-12-29T09:01:14;99212.00;;;9.20
22322;BMP180;11328;53.928;18.522;2022-12-29T09:03:41;99215.00;;;9.20
22322;BMP180;11328;53.928;18.522;2022-12-29T09:06:28;99204.00;;;9.20
22322;BMP180;11328;53.928;18.522;2022-12-29T09:08:57;99206.00;;;9.10
22322;BMP180;11328;53.928;18.522;2022-12-29T09:11:25;99202.00;;;9.20
22322;BMP180;11328;53.928;18.522;2022-12-29T09:13:53;99199.00;;;9.30
22322;BMP180;11328;53.928;18.522;2022-12-29T09:16:23;99207.00;;;9.40
22322;BMP180;11328;53.928;18.522;2022-12-29T09:18:50;99185.00;;;9.30
22322;BMP180;11328;53.928;18.522;2022-12-29T09:21:17;99201.00;;;9.20
22322;BMP180;11328;53.928;18.522;2022-12-29T09:23:44;99202.00;;;9.30
22322;BMP180;11328;53.928;18.522;2022-12-29T09:26:11;99210.00;;;9.30
22322;BMP180;11328;53.928;18.522;2022-12-29T09:28:38;99205.00;;;9.30
22322;BMP180;11328;53.928;18.522;2022-12-29T09:31:06;99199.00;;;9.40
22322;BMP180;11328;53.928;18.522;2022-12-29T09:33:33;99203.00;;;9.40
22322;BMP180;11328;53.928;18.522;2022-12-29T09:36:01;99189.00;;;9.50
22322;BMP180;11328;53.928;18.522;2022-12-29T09:38:29;99188.00;;;9.50
22322;BMP180;11328;53.928;18.522;2022-12-29T09:41:16;99184.00;;;9.50
22322;BMP180;11328;53.928;18.522;2022-12-29T09:44:03;99170.00;;;9.50
22322;BMP180;11328;53.928;18.522;2022-12-29T09:46:46;99179.00;;;9.40
22322;BMP180;11328;53.928;18.522;2022-12-29T09:49:44;99165.00;;;9.50
22322;BMP180;11328;53.928;18.522;2022-12-29T09:55:08;99164.00;;;9.60
22322;BMP180;11328;53.928;18.522;2022-12-29T09:58:02;99169.00;;;9.70
22322;BMP180;11328;53.928;18.522;2022-12-29T10:00:47;99174.00;;;9.70
22322;BMP180;11328;53.928;18.522;2022-12-29T10:03:25;99166.00;;;9.60
22322;BMP180;11328;53.928;18.522;2022-12-29T10:06:15;99175.00;;;9.70
22322;BMP180;11328;53.928;18.522;2022-12-29T10:20:55;99166.00;;;9.60
22322;BMP180;11328;53.928;18.522;2022-12-29T10:23:42;99182.00;;;9.50
22322;BMP180;11328;53.928;18.522;2022-12-29T10:26:17;99176.00;;;9.50
22322;BMP180;11328;53.928;18.522;2022-12-29T10:29:04;99167.00;;;9.60
22322;BMP180;11328;53.928;18.522;2022-12-29T10:31:40;99168.00;;;9.60
22322;BMP180;11328;53.928;18.522;2022-12-29T10:37:17;99139.00;;;9.60
22322;BMP180;11328;53.928;18.522;2022-12-29T10:39:55;99143.00;;;9.70
22322;BMP180;11328;53.928;18.522;2022-12-29T10:42:33;99143.00;;;9.70
22322;BMP180;11328;53.928;18.522;2022-12-29T10:45:04;99132.00;;;9.70
22322;BMP180;11328;53.928;18.522;2022-12-29T10:47:38;99134.00;;;9.70
22322;BMP180;11328;53.928;18.522;2022-12-29T10:50:12;99130.00;;;9.80
22322;BMP180;11328;53.928;18.522;2022-12-29T10:52:40;99128.00;;;9.80
22322;BMP180;11328;53.928;18.522;2022-12-29T10:55:22;99138.00;;;9.80
22322;BMP180;11328;53.928;18.522;2022-12-29T10:57:52;99119.00;;;9.90
22322;BMP180;11328;53.928;18.522;2022-12-29T11:00:21;99129.00;;;9.90
22322;BMP180;11328;53.928;18.522;2022-12-29T11:03:43;99128.00;;;9.90
22322;BMP180;11328;53.928;18.522;2022-12-29T11:06:09;99139.00;;;10.00
22322;BMP180;11328;53.928;18.522;2022-12-29T11:08:58;99116.00;;;10.00
22322;BMP180;11328;53.928;18.522;2022-12-29T11:11:33;99125.00;;;10.00
22322;BMP180;11328;53.928;18.522;2022-12-29T11:14:27;99128.00;;;10.10
22322;BMP180;11328;53.928;18.522;2022-12-29T11:16:59;99138.00;;;10.20
22322;BMP180;11328;53.928;18.522;2022-12-29T11:19:32;99136.00;;;10.10
22322;BMP180;11328;53.928;18.522;2022-12-29T11:22:28;99131.00;;;10.10
22322;BMP180;11328;53.928;18.522;2022-12-29T11:25:10;99135.00;;;10.10
22322;BMP180;11328;53.928;18.522;2022-12-29T11:27:40;99128.00;;;10.20
22322;BMP180;11328;53.928;18.522;2022-12-29T11:30:28;99135.00;;;10.20
22322;BMP180;11328;53.928;18.522;2022-12-29T11:33:02;99129.00;;;10.20
22322;BMP180;11328;53.928;18.522;2022-12-29T11:35:35;99123.00;;;10.20
22322;BMP180;11328;53.928;18.522;2022-12-29T11:38:04;99137.00;;;10.10
22322;BMP180;11328;53.928;18.522;2022-12-29T11:40:38;99134.00;;;10.00
22322;BMP180;11328;53.928;18.522;2022-12-29T11:43:17;99132.00;;;10.20
22322;BMP180;11328;53.928;18.522;2022-12-29T11:45:47;99139.00;;;10.20
22322;BMP180;11328;53.928;18.522;2022-12-29T11:48:18;99128.00;;;10.30
22322;BMP180;11328;53.928;18.522;2022-12-29T11:50:55;99124.00;;;10.30
22322;BMP180;11328;53.928;18.522;2022-12-29T11:53:50;99123.00;;;10.40
22322;BMP180;11328;53.928;18.522;2022-12-29T11:56:32;99131.00;;;10.40
22322;BMP180;11328;53.928;18.522;2022-12-29T11:59:48;99116.00;;;10.40
22322;BMP180;11328;53.928;18.522;2022-12-29T12:02:42;99114.00;;;10.30
22322;BMP180;11328;53.928;18.522;2022-12-29T12:08:28;99108.00;;;10.40
22322;BMP180;11328;53.928;18.522;2022-12-29T12:11:15;99102.00;;;10.40
22322;BMP180;11328;53.928;18.522;2022-12-29T12:17:04;99104.00;;;10.30
22322;BMP180;11328;53.928;18.522;2022-12-29T12:19:48;99104.00;;;10.40
22322;BMP180;11328;53.928;18.522;2022-12-29T12:22:40;99104.00;;;10.50
22322;BMP180;11328;53.928;18.522;2022-12-29T12:25:35;99107.00;;;10.60
22322;BMP180;11328;53.928;18.522;2022-12-29T12:30:57;99104.00;;;10.60
22322;BMP180;11328;53.928;18.522;2022-12-29T12:33:41;99107.00;;;10.70
22322;BMP180;11328;53.928;18.522;2022-12-29T12:42:45;99113.00;;;10.60
22322;BMP180;11328;53.928;18.522;2022-12-29T12:48:27;99099.00;;;10.70
22322;BMP180;11328;53.928;18.522;2022-12-29T13:00:16;99091.00;;;10.70
22322;BMP180;11328;53.928;18.522;2022-12-29T13:03:15;99090.00;;;10.60
22322;BMP180;11328;53.928;18.522;2022-12-29T13:09:07;99099.00;;;10.70
22322;BMP180;11328;53.928;18.522;2022-12-29T13:12:31;99097.00;;;10.80
22322;BMP180;11328;53.928;18.522;2022-12-29T13:18:02;99119.00;;;10.80
22322;BMP180;11328;53.928;18.522;2022-12-29T13:24:15;99111.00;;;10.80
22322;BMP180;11328;53.928;18.522;2022-12-29T13:26:55;99081.00;;;10.90
22322;BMP180;11328;53.928;18.522;2022-12-29T13:30:40;99115.00;;;10.90
22322;BMP180;11328;53.928;18.522;2022-12-29T13:36:03;99121.00;;;10.90
22322;BMP180;11328;53.928;18.522;2022-12-29T13:38:40;99103.00;;;10.90
22322;BMP180;11328;53.928;18.522;2022-12-29T13:41:32;99132.00;;;10.90
22322;BMP180;11328;53.928;18.522;2022-12-29T13:44:03;99134.00;;;10.80
22322;BMP180;11328;53.928;18.522;2022-12-29T13:46:39;99131.00;;;10.80
22322;BMP180;11328;53.928;18.522;2022-12-29T13:49:13;99136.00;;;10.70
22322;BMP180;11328;53.928;18.522;2022-12-29T13:51:54;99124.00;;;10.80
22322;BMP180;11328;53.928;18.522;2022-12-29T13:54:54;99124.00;;;10.80
22322;BMP180;11328;53.928;18.522;2022-12-29T13:57:32;99131.00;;;10.80
22322;BMP180;11328;53.928;18.522;2022-12-29T14:00:18;99132.00;;;10.80
22322;BMP180;11328;53.928;18.522;2022-12-29T14:07:59;99081.00;;;10.90
22322;BMP180;11328;53.928;18.522;2022-12-29T14:10:36;99140.00;;;10.90
22322;BMP180;11328;53.928;18.522;2022-12-29T14:15:44;99127.00;;;10.80
22322;BMP180;11328;53.928;18.522;2022-12-29T14:18:17;99124.00;;;10.80
22322;BMP180;11328;53.928;18.522;2022-12-29T14:20:58;99139.00;;;10.90
22322;BMP180;11328;53.928;18.522;2022-12-29T14:23:46;99134.00;;;10.80
22322;BMP180;11328;53.928;18.522;2022-12-29T14:34:59;99157.00;;;10.70
22322;BMP180;11328;53.928;18.522;2022-12-29T14:37:33;99154.00;;;10.70
22322;BMP180;11328;53.928;18.522;2022-12-29T14:40:14;99149.00;;;10.70
22322;BMP180;11328;53.928;18.522;2022-12-29T14:42:42;99146.00;;;10.70
22322;BMP180;11328;53.928;18.522;2022-12-29T14:47:45;99154.00;;;10.80
22322;BMP180;11328;53.928;18.522;2022-12-29T14:50:17;99145.00;;;10.60
22322;BMP180;11328;53.928;18.522;2022-12-29T14:53:00;99146.00;;;10.60
22322;BMP180;11328;53.928;18.522;2022-12-29T14:55:54;99147.00;;;10.60
22322;BMP180;11328;53.928;18.522;2022-12-29T14:58:50;99142.00;;;10.70
22322;BMP180;11328;53.928;18.522;2022-12-29T15:01:36;99135.00;;;10.60
22322;BMP180;11328;53.928;18.522;2022-12-29T15:04:17;99143.00;;;10.70
22322;BMP180;11328;53.928;18.522;2022-12-29T15:06:46;99142.00;;;10.70
22322;BMP180;11328;53.928;18.522;2022-12-29T15:09:33;99143.00;;;10.80
22322;BMP180;11328;53.928;18.522;2022-12-29T15:12:33;99138.00;;;10.80
22322;BMP180;11328;53.928;18.522;2022-12-29T15:15:40;99147.00;;;10.80
22322;BMP180;11328;53.928;18.522;2022-12-29T15:18:29;99139.00;;;10.80
22322;BMP180;11328;53.928;18.522;2022-12-29T15:21:05;99114.00;;;10.90
22322;BMP180;11328;53.928;18.522;2022-12-29T15:23:34;99133.00;;;10.90
22322;BMP180;11328;53.928;18.522;2022-12-29T15:26:06;99133.00;;;10.80
22322;BMP180;11328;53.928;18.522;2022-12-29T15:29:00;99131.00;;;10.70
22322;BMP180;11328;53.928;18.522;2022-12-29T15:31:27;99136.00;;;10.70
22322;BMP180;11328;53.928;18.522;2022-12-29T15:34:23;99134.00;;;10.60
22322;BMP180;11328;53.928;18.522;2022-12-29T15:36:50;99134.00;;;10.50
22322;BMP180;11328;53.928;18.522;2022-12-29T15:39:29;99145.00;;;10.50
22322;BMP180;11328;53.928;18.522;2022-12-29T15:44:44;99124.00;;;10.60
22322;BMP180;11328;53.928;18.522;2022-12-29T15:47:19;99115.00;;;10.60
22322;BMP180;11328;53.928;18.522;2022-12-29T15:49:59;99132.00;;;10.60
22322;BMP180;11328;53.928;18.522;2022-12-29T15:52:28;99134.00;;;10.60
22322;BMP180;11328;53.928;18.522;2022-12-29T15:54:59;99125.00;;;10.70
22322;BMP180;11328;53.928;18.522;2022-12-29T15:57:31;99130.00;;;10.60
22322;BMP180;11328;53.928;18.522;2022-12-29T16:00:17;99139.00;;;10.60
22322;BMP180;11328;53.928;18.522;2022-12-29T16:02:48;99129.00;;;10.60
22322;BMP180;11328;53.928;18.522;2022-12-29T16:05:17;99143.00;;;10.60
22322;BMP180;11328;53.928;18.522;2022-12-29T16:07:58;99143.00;;;10.60
22322;BMP180;11328;53.928;18.522;2022-12-29T16:10:51;99138.00;;;10.70
22322;BMP180;11328;53.928;18.522;2022-12-29T16:13:30;99136.00;;;10.70
22322;BMP180;11328;53.928;18.522;2022-12-29T16:16:21;99134.00;;;10.70
22322;BMP180;11328;53.928;18.522;2022-12-29T16:18:51;99142.00;;;10.80
22322;BMP180;11328;53.928;18.522;2022-12-29T16:21:29;99133.00;;;10.80
22322;BMP180;11328;53.928;18.522;2022-12-29T16:24:25;99148.00;;;10.90
22322;BMP180;11328;53.928;18.522;2022-12-29T16:27:08;99144.00;;;11.00
22322;BMP180;11328;53.928;18.522;2022-12-29T16:29:36;99143.00;;;11.00
22322;BMP180;11328;53.928;18.522;2022-12-29T16:32:26;99142.00;;;11.00
22322;BMP180;11328;53.928;18.522;2022-12-29T16:35:19;99144.00;;;11.00
22322;BMP180;11328;53.928;18.522;2022-12-29T16:37:47;99132.00;;;11.00
22322;BMP180;11328;53.928;18.522;2022-12-29T16:40:30;99133.00;;;11.10
22322;BMP180;11328;53.928;18.522;2022-12-29T16:43:03;99135.00;;;11.10
22322;BMP180;11328;53.928;18.522;2022-12-29T16:50:43;99133.00;;;11.00
22322;BMP180;11328;53.928;18.522;2022-12-29T16:53:32;99151.00;;;11.10
22322;BMP180;11328;53.928;18.522;2022-12-29T16:56:09;99153.00;;;11.10
22322;BMP180;11328;53.928;18.522;2022-12-29T16:58:40;99159.00;;;11.00
22322;BMP180;11328;53.928;18.522;2022-12-29T17:01:13;99155.00;;;11.20
22322;BMP180;11328;53.928;18.522;2022-12-29T17:04:00;99161.00;;;11.20
22322;BMP180;11328;53.928;18.522;2022-12-29T17:06:31;99154.00;;;11.10
22322;BMP180;11328;53.928;18.522;2022-12-29T17:08:58;99156.00;;;11.10